createdAt,value
2018-12-21T00:00:34.689Z,8.50
2018-12-21T00:03:02.627Z,8.50
2018-12-21T00:05:30.565Z,8.50
2018-12-21T00:07:58.764Z,8.50
2018-12-21T00:10:26.843Z,8.40
2018-12-21T00:12:54.830Z,8.40
2018-12-21T00:15:22.832Z,8.40
2018-12-21T00:17:50.808Z,8.30
2018-12-21T00:20:18.721Z,8.20
2018-12-21T00:23:01.202Z,8.10
2018-12-21T00:25:29.203Z,8.10
2018-12-21T00:27:57.136Z,8.10
2018-12-21T00:30:31.128Z,8.10
2018-12-21T00:33:04.529Z,8.10
2018-12-21T00:35:37.899Z,8.10
2018-12-21T00:38:11.373Z,8.20
2018-12-21T00:40:44.764Z,8.30
2018-12-21T00:43:20.106Z,8.30
2018-12-21T00:45:53.094Z,8.30
2018-12-21T00:48:21.087Z,8.30
2018-12-21T00:50:49.011Z,8.40
2018-12-21T00:53:16.956Z,8.30
2018-12-21T00:55:44.896Z,8.40
2018-12-21T00:58:12.841Z,8.40
2018-12-21T01:00:40.867Z,8.40
2018-12-21T01:03:08.863Z,8.40
2018-12-21T01:05:36.821Z,8.40
2018-12-21T01:08:04.788Z,8.40
2018-12-21T01:10:32.712Z,8.50
2018-12-21T01:13:00.628Z,8.50
2018-12-21T01:15:28.572Z,8.60
2018-12-21T01:17:56.683Z,8.60
2018-12-21T01:20:24.737Z,8.60
2018-12-21T01:22:52.680Z,8.70
2018-12-21T01:25:20.665Z,8.70
2018-12-21T01:27:48.594Z,8.80
2018-12-21T01:30:16.576Z,8.70
2018-12-21T01:32:44.516Z,8.70
2018-12-21T01:35:12.452Z,8.60
2018-12-21T01:37:40.388Z,8.60
2018-12-21T01:40:08.383Z,8.60
2018-12-21T01:42:36.352Z,8.60
2018-12-21T01:45:35.045Z,8.50
2018-12-21T01:48:02.993Z,8.50
2018-12-21T01:50:30.952Z,8.50
2018-12-21T01:52:58.873Z,8.50
2018-12-21T01:55:26.808Z,8.50
2018-12-21T01:57:54.819Z,8.50
2018-12-21T02:00:22.767Z,8.50
2018-12-21T02:02:50.699Z,8.50
2018-12-21T02:05:18.636Z,8.50
2018-12-21T02:07:46.560Z,8.50
2018-12-21T02:10:14.481Z,8.50
2018-12-21T02:12:42.432Z,8.50
2018-12-21T02:15:10.369Z,8.40
2018-12-21T02:17:38.312Z,8.30
2018-12-21T02:20:06.548Z,8.20
2018-12-21T02:22:34.485Z,8.10
2018-12-21T02:25:02.468Z,8.00
2018-12-21T02:27:30.405Z,7.80
2018-12-21T02:29:58.344Z,7.70
2018-12-21T02:32:26.404Z,7.70
2018-12-21T02:34:54.380Z,7.60
2018-12-21T02:37:22.300Z,7.50
2018-12-21T02:39:50.263Z,7.50
2018-12-21T02:42:18.202Z,7.50
2018-12-21T02:44:46.217Z,7.50
2018-12-21T02:47:14.143Z,7.40
2018-12-21T02:49:42.048Z,7.30
2018-12-21T02:52:09.988Z,7.20
2018-12-21T02:54:37.913Z,7.30
2018-12-21T02:57:05.851Z,7.20
2018-12-21T02:59:33.790Z,7.10
2018-12-21T03:02:01.734Z,7.10
2018-12-21T03:04:29.680Z,7.10
2018-12-21T03:06:57.604Z,7.10
2018-12-21T03:09:26.459Z,7.10
2018-12-21T03:11:54.508Z,7.10
2018-12-21T03:14:22.446Z,7.10
2018-12-21T03:16:50.372Z,7.10
2018-12-21T03:19:18.289Z,7.00
2018-12-21T03:21:46.213Z,7.00
2018-12-21T03:24:14.173Z,7.00
2018-12-21T03:26:42.107Z,6.90
2018-12-21T03:29:10.025Z,6.90
2018-12-21T03:31:37.998Z,7.00
2018-12-21T03:34:05.975Z,7.00
2018-12-21T03:36:33.903Z,6.90
2018-12-21T03:39:01.882Z,6.90
2018-12-21T03:41:29.869Z,6.80
2018-12-21T03:43:57.776Z,6.80
2018-12-21T03:46:25.805Z,6.70
2018-12-21T03:48:53.846Z,6.80
2018-12-21T03:51:21.788Z,6.80
2018-12-21T03:53:49.724Z,6.80
2018-12-21T03:56:17.647Z,6.80
2018-12-21T03:58:45.603Z,6.70
2018-12-21T04:01:13.508Z,6.60
2018-12-21T04:03:41.434Z,6.60
2018-12-21T04:06:09.375Z,6.60
2018-12-21T04:08:37.325Z,6.50
2018-12-21T04:11:05.294Z,6.50
2018-12-21T04:13:33.250Z,6.50
2018-12-21T04:16:01.292Z,6.50
2018-12-21T04:18:29.215Z,6.50
2018-12-21T04:20:57.150Z,6.50
2018-12-21T04:23:25.119Z,6.60
2018-12-21T04:25:53.030Z,6.60
2018-12-21T04:28:20.976Z,6.60
2018-12-21T04:30:48.920Z,6.60
2018-12-21T04:33:16.893Z,6.60
2018-12-21T04:35:44.969Z,6.60
2018-12-21T04:38:12.897Z,6.60
2018-12-21T04:40:40.826Z,6.60
2018-12-21T04:43:08.738Z,6.70
2018-12-21T04:45:36.684Z,6.70
2018-12-21T04:48:04.644Z,6.80
2018-12-21T04:50:32.579Z,6.80
2018-12-21T04:53:00.523Z,6.80
2018-12-21T04:55:28.515Z,6.80
2018-12-21T04:57:56.516Z,6.70
2018-12-21T05:00:24.505Z,6.70
2018-12-21T05:02:52.496Z,6.70
2018-12-21T05:05:20.414Z,6.70
2018-12-21T05:07:48.409Z,6.70
2018-12-21T05:10:16.626Z,6.70
2018-12-21T05:12:44.537Z,6.70
2018-12-21T05:15:12.501Z,6.70
2018-12-21T05:17:40.472Z,6.70
2018-12-21T05:20:08.433Z,6.80
2018-12-21T05:22:36.381Z,6.80
2018-12-21T05:25:04.309Z,6.80
2018-12-21T05:27:32.253Z,6.80
2018-12-21T05:30:00.221Z,6.80
2018-12-21T05:32:28.173Z,6.70
2018-12-21T05:34:56.293Z,6.80
2018-12-21T05:37:24.333Z,6.80
2018-12-21T05:39:52.260Z,6.80
2018-12-21T05:42:20.188Z,6.80
2018-12-21T05:44:48.128Z,6.90
2018-12-21T05:47:16.053Z,6.90
2018-12-21T05:49:43.966Z,6.80
2018-12-21T05:52:11.900Z,6.80
2018-12-21T05:54:46.364Z,6.80
2018-12-21T05:57:14.293Z,6.80
2018-12-21T05:59:42.220Z,6.70
2018-12-21T06:02:10.151Z,6.70
2018-12-21T06:04:38.095Z,6.70
2018-12-21T06:07:06.025Z,6.70
2018-12-21T06:09:34.032Z,6.80
2018-12-21T06:12:01.996Z,6.80
2018-12-21T06:14:29.937Z,6.90
2018-12-21T06:16:57.888Z,6.90
2018-12-21T06:19:25.948Z,6.90
2018-12-21T06:21:53.924Z,6.90
2018-12-21T06:24:21.860Z,6.80
2018-12-21T06:26:49.792Z,6.70
2018-12-21T06:29:17.785Z,6.70
2018-12-21T06:31:45.716Z,6.70
2018-12-21T06:34:13.657Z,6.70
2018-12-21T06:36:41.788Z,6.70
2018-12-21T06:39:09.772Z,6.70
2018-12-21T06:41:37.712Z,6.70
2018-12-21T06:44:05.631Z,6.60
2018-12-21T06:46:33.700Z,6.60
2018-12-21T06:49:01.643Z,6.60
2018-12-21T06:51:29.609Z,6.50
2018-12-21T06:53:57.561Z,6.50
2018-12-21T06:56:25.604Z,6.50
2018-12-21T06:58:53.615Z,6.50
2018-12-21T07:01:21.548Z,6.50
2018-12-21T07:03:49.532Z,6.60
2018-12-21T07:06:17.655Z,6.60
2018-12-21T07:08:45.692Z,6.50
2018-12-21T07:11:13.765Z,6.50
2018-12-21T07:13:41.789Z,6.50
2018-12-21T07:16:09.842Z,6.60
2018-12-21T07:18:37.928Z,6.50
2018-12-21T07:21:05.956Z,6.50
2018-12-21T07:23:33.999Z,6.50
2018-12-21T07:26:02.127Z,6.50
2018-12-21T07:28:30.212Z,6.50
2018-12-21T07:30:58.224Z,6.50
2018-12-21T07:33:27.327Z,6.50
2018-12-21T07:35:55.468Z,6.50
2018-12-21T07:38:23.516Z,6.50
2018-12-21T07:40:51.536Z,6.60
2018-12-21T07:43:19.921Z,6.60
2018-12-21T07:45:48.184Z,6.60
2018-12-21T07:48:16.318Z,6.70
2018-12-21T07:50:44.644Z,6.70
2018-12-21T07:53:12.735Z,6.70
2018-12-21T07:55:41.059Z,6.80
2018-12-21T07:58:09.312Z,6.90
2018-12-21T08:00:37.677Z,7.00
2018-12-21T08:03:05.702Z,7.00
2018-12-21T08:05:34.110Z,7.00
2018-12-21T08:08:02.187Z,7.10
2018-12-21T08:10:30.681Z,7.10
2018-12-21T08:12:59.546Z,7.10
2018-12-21T08:15:28.544Z,7.10
2018-12-21T08:18:11.212Z,7.10
2018-12-21T08:20:39.554Z,7.20
2018-12-21T08:23:07.787Z,7.30
2018-12-21T08:25:35.944Z,7.40
2018-12-21T08:28:04.492Z,7.50
2018-12-21T08:30:32.932Z,7.60
2018-12-21T08:33:02.381Z,7.70
2018-12-21T08:35:31.526Z,7.80
2018-12-21T08:38:00.763Z,7.90
2018-12-21T08:40:29.808Z,8.00
2018-12-21T08:42:58.104Z,8.20
2018-12-21T08:45:26.495Z,8.40
2018-12-21T08:47:54.612Z,8.50
2018-12-21T08:50:22.877Z,8.60
2018-12-21T08:52:51.332Z,8.60
2018-12-21T08:55:19.709Z,8.70
2018-12-21T08:57:47.834Z,8.80
2018-12-21T09:00:16.272Z,8.90
2018-12-21T09:02:44.647Z,9.20
2018-12-21T09:05:13.234Z,9.40
2018-12-21T09:07:42.067Z,9.60
2018-12-21T09:10:11.941Z,9.80
2018-12-21T09:12:40.439Z,10.00
2018-12-21T09:15:12.730Z,10.10
2018-12-21T09:17:41.459Z,10.10
2018-12-21T09:20:11.072Z,10.20
2018-12-21T09:22:39.632Z,10.20
2018-12-21T09:25:08.843Z,10.30
2018-12-21T09:27:37.255Z,10.30
2018-12-21T09:30:09.325Z,10.20
2018-12-21T09:32:37.581Z,10.20
2018-12-21T09:35:05.841Z,10.30
2018-12-21T09:37:34.170Z,10.30
2018-12-21T09:40:04.267Z,10.40
2018-12-21T09:42:32.721Z,10.50
2018-12-21T09:45:01.887Z,10.60
2018-12-21T09:47:32.354Z,10.60
2018-12-21T09:50:01.647Z,10.60
2018-12-21T09:52:29.832Z,10.50
2018-12-21T09:54:58.563Z,10.60
2018-12-21T09:57:26.772Z,10.80
2018-12-21T09:59:55.009Z,11.10
2018-12-21T10:02:23.209Z,11.30
2018-12-21T10:04:51.787Z,11.50
2018-12-21T10:07:27.405Z,11.60
2018-12-21T10:09:50.391Z,11.50
2018-12-21T10:12:18.640Z,11.40
2018-12-21T10:14:46.820Z,11.30
2018-12-21T10:17:15.004Z,11.30
2018-12-21T10:19:43.632Z,11.30
2018-12-21T10:22:11.892Z,11.40
2018-12-21T10:24:42.096Z,11.50
2018-12-21T10:27:11.196Z,11.60
2018-12-21T10:29:39.966Z,11.60
2018-12-21T10:32:08.560Z,11.60
2018-12-21T10:34:38.437Z,11.60
2018-12-21T10:37:07.151Z,11.60
2018-12-21T10:39:35.468Z,11.80
2018-12-21T10:42:03.654Z,11.80
2018-12-21T10:44:34.868Z,11.80
2018-12-21T10:47:03.968Z,11.80
2018-12-21T10:49:32.606Z,11.70
2018-12-21T10:52:01.878Z,11.70
2018-12-21T10:54:31.044Z,11.70
2018-12-21T10:56:59.252Z,11.80
2018-12-21T10:59:28.775Z,11.90
2018-12-21T11:01:57.044Z,12.00
2018-12-21T11:04:25.075Z,12.10
2018-12-21T11:06:53.245Z,12.10
2018-12-21T11:09:21.338Z,12.30
2018-12-21T11:11:49.611Z,12.30
2018-12-21T11:14:17.805Z,12.30
2018-12-21T11:16:46.070Z,12.30
2018-12-21T11:19:14.293Z,12.30
2018-12-21T11:21:42.577Z,12.20
2018-12-21T11:24:10.788Z,12.20
2018-12-21T11:26:38.932Z,12.20
2018-12-21T11:29:07.131Z,12.00
2018-12-21T11:31:36.036Z,11.80
2018-12-21T11:34:04.124Z,11.80
2018-12-21T11:36:33.181Z,11.80
2018-12-21T11:39:01.558Z,11.70
2018-12-21T11:41:30.260Z,11.80
2018-12-21T11:43:58.645Z,12.00
2018-12-21T11:46:26.795Z,12.30
2018-12-21T11:48:55.200Z,12.60
2018-12-21T11:51:23.354Z,12.70
2018-12-21T11:53:51.943Z,12.90
2018-12-21T11:56:20.123Z,13.10
2018-12-21T11:58:48.210Z,13.10
2018-12-21T12:01:16.610Z,12.90
2018-12-21T12:03:46.276Z,13.00
2018-12-21T12:06:14.734Z,12.90
2018-12-21T12:08:43.187Z,12.80
2018-12-21T12:11:11.439Z,12.60
2018-12-21T12:13:39.560Z,12.50
2018-12-21T12:16:07.869Z,12.60
2018-12-21T12:18:38.844Z,12.80
2018-12-21T12:21:07.258Z,12.90
2018-12-21T12:23:35.705Z,12.80
2018-12-21T12:26:05.004Z,12.90
2018-12-21T12:28:34.360Z,13.00
2018-12-21T12:31:03.653Z,13.10
2018-12-21T12:33:32.420Z,13.20
2018-12-21T12:36:00.580Z,13.20
2018-12-21T12:38:28.784Z,13.20
2018-12-21T12:40:57.204Z,13.10
2018-12-21T12:43:25.545Z,13.10
2018-12-21T12:45:55.862Z,13.10
2018-12-21T12:48:23.963Z,13.20
2018-12-21T12:50:52.348Z,13.30
2018-12-21T12:53:20.588Z,13.50
2018-12-21T12:55:48.686Z,13.60
2018-12-21T12:58:16.834Z,13.70
2018-12-21T13:00:45.245Z,13.80
2018-12-21T13:03:13.382Z,13.80
2018-12-21T13:05:41.408Z,13.70
2018-12-21T13:08:09.589Z,13.70
2018-12-21T13:10:37.950Z,13.60
2018-12-21T13:13:06.323Z,13.60
2018-12-21T13:15:35.592Z,13.60
2018-12-21T13:18:03.902Z,13.70
2018-12-21T13:20:33.421Z,13.70
2018-12-21T13:23:06.726Z,13.80
2018-12-21T13:25:35.837Z,13.80
2018-12-21T13:28:04.173Z,13.80
2018-12-21T13:30:34.350Z,13.80
2018-12-21T13:33:02.764Z,13.90
2018-12-21T13:35:31.411Z,13.90
2018-12-21T13:37:59.793Z,13.80
2018-12-21T13:40:30.232Z,13.80
2018-12-21T13:43:07.882Z,13.80
2018-12-21T13:45:37.550Z,13.80
2018-12-21T13:48:10.532Z,13.70
2018-12-21T13:50:40.404Z,13.70
2018-12-21T13:53:11.142Z,13.70
2018-12-21T13:55:41.181Z,13.70
2018-12-21T13:58:10.784Z,13.70
2018-12-21T14:00:40.259Z,13.70
2018-12-21T14:03:09.193Z,13.70
2018-12-21T14:05:39.053Z,13.60
2018-12-21T14:08:07.436Z,13.50
2018-12-21T14:10:35.696Z,13.50
2018-12-21T14:13:06.974Z,13.40
2018-12-21T14:15:36.485Z,13.40
2018-12-21T14:18:04.832Z,13.50
2018-12-21T14:20:33.555Z,13.60
2018-12-21T14:23:02.555Z,13.70
2018-12-21T14:25:33.248Z,13.80
2018-12-21T14:28:01.881Z,13.90
2018-12-21T14:30:31.445Z,13.90
2018-12-21T14:32:59.977Z,13.90
2018-12-21T14:35:30.988Z,13.90
2018-12-21T14:37:59.345Z,13.90
2018-12-21T14:40:29.025Z,13.90
2018-12-21T14:42:59.494Z,13.90
2018-12-21T14:45:29.376Z,13.90
2018-12-21T14:50:54.700Z,13.80
2018-12-21T14:53:23.016Z,13.70
2018-12-21T14:55:52.256Z,13.60
2018-12-21T14:58:22.738Z,13.50
2018-12-21T15:00:51.856Z,13.50
2018-12-21T15:03:22.418Z,13.40
2018-12-21T15:05:53.648Z,13.30
2018-12-21T15:08:21.835Z,13.20
2018-12-21T15:10:52.634Z,13.10
2018-12-21T15:13:22.600Z,13.00
2018-12-21T15:15:51.952Z,12.90
2018-12-21T15:18:21.722Z,12.90
2018-12-21T15:20:51.401Z,12.80
2018-12-21T15:23:32.803Z,12.80
2018-12-21T15:26:03.727Z,12.70
2018-12-21T15:28:33.813Z,12.70
2018-12-21T15:31:02.700Z,12.70
2018-12-21T15:33:46.034Z,12.60
2018-12-21T15:36:14.813Z,12.60
2018-12-21T15:38:44.135Z,12.50
2018-12-21T15:41:13.799Z,12.40
2018-12-21T15:43:42.275Z,12.40
2018-12-21T15:46:16.116Z,12.40
2018-12-21T15:48:47.688Z,12.40
2018-12-21T15:51:18.141Z,12.40
2018-12-21T15:53:47.440Z,12.50
2018-12-21T15:56:17.721Z,12.50
2018-12-21T15:58:47.598Z,12.50
2018-12-21T16:01:17.346Z,12.50
2018-12-21T16:03:47.132Z,12.30
2018-12-21T16:06:16.431Z,12.20
2018-12-21T16:08:45.466Z,12.10
2018-12-21T16:11:16.243Z,12.10
2018-12-21T16:13:45.789Z,12.00
2018-12-21T16:16:15.008Z,12.00
2018-12-21T16:18:44.150Z,12.00
2018-12-21T16:21:12.985Z,11.90
2018-12-21T16:23:41.883Z,11.80
2018-12-21T16:26:11.925Z,11.70
2018-12-21T16:28:42.079Z,11.80
2018-12-21T16:31:11.093Z,11.80
2018-12-21T16:33:40.018Z,11.90
2018-12-21T16:36:08.216Z,11.90
2018-12-21T16:38:36.717Z,12.00
2018-12-21T16:41:04.780Z,11.90
2018-12-21T16:43:32.979Z,11.90
2018-12-21T16:46:01.180Z,11.80
2018-12-21T16:48:29.199Z,11.80
2018-12-21T16:50:57.247Z,11.60
2018-12-21T16:53:25.192Z,11.50
2018-12-21T16:55:53.154Z,11.40
2018-12-21T16:58:21.089Z,11.40
2018-12-21T17:00:49.072Z,11.30
2018-12-21T17:03:17.050Z,11.20
2018-12-21T17:05:45.036Z,11.20
2018-12-21T17:08:13.122Z,11.20
2018-12-21T17:10:41.079Z,11.20
2018-12-21T17:13:09.068Z,11.20
2018-12-21T17:15:37.037Z,11.20
2018-12-21T17:18:05.808Z,11.30
2018-12-21T17:20:33.750Z,11.20
2018-12-21T17:23:02.708Z,11.30
2018-12-21T17:25:31.532Z,11.30
2018-12-21T17:27:59.484Z,11.30
2018-12-21T17:30:27.441Z,11.30
2018-12-21T17:32:55.434Z,11.30
2018-12-21T17:35:23.366Z,11.20
2018-12-21T17:37:51.384Z,11.20
2018-12-21T17:40:19.332Z,11.30
2018-12-21T17:42:47.323Z,11.30
2018-12-21T17:45:15.355Z,11.30
2018-12-21T17:47:43.352Z,11.30
2018-12-21T17:50:11.318Z,11.30
2018-12-21T17:52:39.339Z,11.40
2018-12-21T17:55:08.321Z,11.40
2018-12-21T17:57:36.328Z,11.40
2018-12-21T18:02:53.756Z,11.30
2018-12-21T18:05:22.581Z,11.30
2018-12-21T18:07:50.925Z,11.30
2018-12-21T18:10:18.949Z,11.30
2018-12-21T18:12:46.915Z,11.30
2018-12-21T18:15:14.893Z,11.30
2018-12-21T18:17:42.856Z,11.20
2018-12-21T18:20:12.089Z,11.20
2018-12-21T18:22:40.439Z,11.20
2018-12-21T18:25:14.226Z,11.20
2018-12-21T18:27:43.753Z,11.10
2018-12-21T18:30:35.173Z,11.20
2018-12-21T18:33:10.458Z,11.20
2018-12-21T18:35:34.807Z,11.30
2018-12-21T18:38:05.642Z,11.30
2018-12-21T18:40:33.988Z,11.40
2018-12-21T18:43:01.939Z,11.30
2018-12-21T18:45:29.908Z,11.30
2018-12-21T18:47:57.910Z,11.20
2018-12-21T18:50:26.889Z,11.10
2018-12-21T18:52:55.446Z,11.00
2018-12-21T18:55:24.075Z,11.00
2018-12-21T18:57:52.591Z,11.00
2018-12-21T19:00:21.132Z,11.00
2018-12-21T19:02:49.692Z,10.90
2018-12-21T19:05:17.692Z,10.90
2018-12-21T19:07:45.677Z,11.00
2018-12-21T19:10:14.142Z,11.00
2018-12-21T19:12:42.412Z,11.00
2018-12-21T19:15:11.084Z,11.00
2018-12-21T19:17:39.197Z,11.00
2018-12-21T19:20:10.164Z,11.00
2018-12-21T19:22:38.206Z,11.00
2018-12-21T19:25:07.360Z,11.00
2018-12-21T19:27:35.337Z,11.00
2018-12-21T19:30:05.667Z,11.10
2018-12-21T19:32:33.876Z,11.10
2018-12-21T19:35:02.140Z,11.10
2018-12-21T19:37:30.120Z,11.10
2018-12-21T19:39:59.540Z,11.20
2018-12-21T19:42:28.152Z,11.20
2018-12-21T19:44:56.816Z,11.20
2018-12-21T19:47:25.985Z,11.20
2018-12-21T19:49:54.560Z,11.20
2018-12-21T19:52:22.943Z,11.20
2018-12-21T19:54:55.776Z,11.30
2018-12-21T19:57:24.456Z,11.30
2018-12-21T19:59:53.988Z,11.40
2018-12-21T20:02:21.956Z,11.40
2018-12-21T20:04:49.964Z,11.40
2018-12-21T20:07:18.532Z,11.40
2018-12-21T20:09:46.873Z,11.40
2018-12-21T20:12:15.442Z,11.40
2018-12-21T20:14:43.991Z,11.20
2018-12-21T20:17:12.624Z,11.20
2018-12-21T20:19:41.452Z,11.20
2018-12-21T20:22:09.984Z,11.20
2018-12-21T20:24:40.276Z,11.20
2018-12-21T20:27:13.812Z,11.20
2018-12-21T20:29:42.368Z,11.10
2018-12-21T20:32:10.333Z,11.00
2018-12-21T20:34:38.598Z,10.90
2018-12-21T20:37:06.540Z,10.90
2018-12-21T20:39:35.963Z,10.90
2018-12-21T20:42:03.897Z,10.90
2018-12-21T20:44:32.165Z,10.90
2018-12-21T20:47:02.249Z,10.90
2018-12-21T20:49:30.353Z,10.90
2018-12-21T20:51:58.316Z,11.00
2018-12-21T20:54:26.685Z,11.00
2018-12-21T20:56:57.582Z,11.00
2018-12-21T20:59:26.081Z,11.10
2018-12-21T21:01:54.103Z,11.10
2018-12-21T21:04:22.034Z,11.10
2018-12-21T21:06:50.007Z,11.20
2018-12-21T21:09:17.920Z,11.20
2018-12-21T21:11:45.866Z,11.20
2018-12-21T21:14:15.057Z,11.20
2018-12-21T21:16:43.022Z,11.20
2018-12-21T21:19:11.000Z,11.20
2018-12-21T21:21:39.025Z,11.10
2018-12-21T21:24:07.005Z,11.00
2018-12-21T21:27:05.629Z,11.00
2018-12-21T21:29:33.568Z,11.00
2018-12-21T21:32:01.694Z,11.10
2018-12-21T21:34:29.649Z,11.10
2018-12-21T21:36:57.577Z,11.00
2018-12-21T21:39:25.544Z,11.00
2018-12-21T21:41:53.551Z,10.90
2018-12-21T21:44:21.503Z,10.90
2018-12-21T21:46:49.433Z,10.90
2018-12-21T21:49:19.369Z,10.80
2018-12-21T21:51:47.352Z,10.80
2018-12-21T21:54:15.323Z,10.80
2018-12-21T21:56:43.273Z,10.80
2018-12-21T21:59:11.215Z,10.80
2018-12-21T22:01:39.149Z,10.70
2018-12-21T22:04:07.130Z,10.70
2018-12-21T22:06:35.066Z,10.70
2018-12-21T22:09:04.175Z,10.70
2018-12-21T22:11:32.221Z,10.70
2018-12-21T22:14:00.150Z,10.70
2018-12-21T22:16:28.132Z,10.70
2018-12-21T22:18:56.075Z,10.80
2018-12-21T22:21:24.013Z,10.90
2018-12-21T22:23:51.956Z,10.90
2018-12-21T22:26:19.884Z,11.00
2018-12-21T22:28:47.829Z,11.00
2018-12-21T22:31:15.782Z,11.00
2018-12-21T22:33:43.768Z,11.00
2018-12-21T22:36:11.700Z,11.00
2018-12-21T22:38:39.699Z,11.00
2018-12-21T22:41:07.627Z,11.00
2018-12-21T22:43:35.844Z,11.00
2018-12-21T22:46:03.971Z,11.00
2018-12-21T22:48:31.899Z,11.10
2018-12-21T22:50:59.916Z,11.10
2018-12-21T22:53:27.905Z,11.10
2018-12-21T22:55:55.848Z,11.10
2018-12-21T22:58:30.352Z,11.10
2018-12-21T23:00:58.340Z,11.10
2018-12-21T23:03:26.281Z,11.10
2018-12-21T23:05:54.205Z,11.10
2018-12-21T23:08:22.127Z,11.10
2018-12-21T23:10:50.176Z,11.10
2018-12-21T23:13:18.143Z,11.10
2018-12-21T23:15:46.075Z,11.10
2018-12-21T23:18:14.016Z,11.10
2018-12-21T23:20:41.961Z,11.10
2018-12-21T23:23:09.931Z,11.00
2018-12-21T23:25:37.925Z,11.10
2018-12-21T23:28:05.905Z,11.10
2018-12-21T23:30:34.183Z,11.10
2018-12-21T23:33:02.150Z,11.10
2018-12-21T23:35:30.161Z,11.10
2018-12-21T23:37:58.134Z,11.10
2018-12-21T23:40:26.100Z,11.20
2018-12-21T23:42:54.108Z,11.20
2018-12-21T23:45:22.024Z,11.20
2018-12-21T23:47:49.959Z,11.20
2018-12-21T23:50:17.940Z,11.20
2018-12-21T23:52:45.880Z,11.20
2018-12-21T23:55:13.807Z,11.20
2018-12-21T23:57:41.740Z,11.20
